Station info - map view · info · telemetry · weather · raw · status · beacons · messages · bulletins · browse · moving · my account
Callsign, ship name or locator: Clear       
It is possible to search using wildcards (*?) after a prefix. Example: OH*
APRS station N44PH - show graphs
Map loading...
Comment: KJ4RZN-9 Vans RV6
Mic-E message: En route
Last status: MT8000FA v1.0
Location: 27°39.29' N 80°25.24' W - locator EL97SP97MD - show map - static map
4.4 miles South bearing 180° from Winter Beach, Indian River County, Florida, United States [?]
7.7 miles South bearing 190° from Wabasso Beach, Indian River County, Florida, United States
25.3 miles North bearing 350° from Port Saint Lucie, Saint Lucie County, Florida, United States
84.4 miles Southeast bearing 136° from Orlando, Orange County, Florida, United States
Last position: 2019-03-10 09:10:04 EDT (9d 3h32m ago)
2019-03-10 09:10:04 EDT local time at Winter Beach, United States [?]
Altitude: 16 ft
Course: 216°
Speed: 14 MPH
Last path: N44PH>RW3Y2Y via AF4CN-3,WIDE1,K4OZS-10,WIDE2*,qAR,KK4QIG (good)
Positions stored: 28513
Stations near current position of N44PH - show more
callsign distance last heard - EDT      callsign distance last heard - EDT
K4CPJ-41.2 miles 118°2019-03-18 17:34:22 WA4ASJ-41.3 miles 207°2019-03-06 15:44:57
EW37391.3 miles 223°2019-03-19 12:32:03 KK4ME1.7 miles 173°2019-03-14 00:18:15
WA4ASJ-91.7 miles 247°2019-03-17 09:05:51 K4CPJ B1.8 miles 128°2019-03-17 16:20:59
K4CPJ-B1.8 miles 128°2019-03-17 16:21:09 K4CPJ1.8 miles 128°2019-03-17 16:12:27
KE8ANF2.0 miles 124°2019-03-19 12:08:18 K8JSM-92.0 miles 236°2019-03-06 02:37:39
FW35722.0 miles 126°2019-03-19 12:40:18 KM4UFN-72.1 miles 212°2019-03-19 12:16:33
K4RRK2.5 miles 244°2019-03-12 12:50:56 W1DR3.0 miles 116°2019-02-23 15:13:58
KB1YBB3.1 miles 244°2019-03-19 11:35:06 K4VRB3.8 miles 78°2019-03-19 11:31:49
K4VRB A3.8 miles 78°2019-03-19 12:34:13 K4VRB-A3.8 miles 78°2019-03-19 12:34:23
K4VRB B3.8 miles 61°2019-03-19 12:24:07 K4VRB-B3.8 miles 61°2019-03-19 12:24:17
Stations which heard N44PH directly on radio –
callsign pkts first heard - EDT last heard longest (tx => rx) longest at - EDT
K4OKE-3 14 2019-03-03 07:47:38 2019-03-10 09:07:55 EL96DG > EL97OF 87.2 miles 40° 2019-03-03 09:33:22
NI4CE-10 37 2019-03-03 07:41:38 2019-03-03 11:07:44 EL97QL > EL87VJ 100.2 miles 268° 2019-03-03 07:41:38
W4IZ-1 4 2019-03-03 07:38:41 2019-03-10 07:57:54 EL97PI > EL99IU 175.7 miles 349° 2019-03-10 07:57:54
W4HEM-14 1 2019-03-03 10:44:55 2019-03-03 10:44:55 EL96DE > EL97HH 79.2 miles 17° 2019-03-03 10:44:55
WC4PEM-10 16 2019-03-03 07:36:48 2019-03-10 08:59:10 EL96DF > EL97CV 115.5 miles 357° 2019-03-03 09:36:54
WC4PEM-14 28 2019-03-03 07:39:21 2019-03-10 09:06:46 EL96DF > EL98EG 138.8 miles 1° 2019-03-03 09:33:46
WC4PEM-12 3 2019-03-03 07:49:36 2019-03-03 09:23:31 EL96IS > EL97FS 71.1 miles 345° 2019-03-03 09:23:31
WC4PEM-11 1 2019-03-10 07:58:53 2019-03-10 07:58:53 EL97NG > EL97BR 71.7 miles 299° 2019-03-10 07:58:53
WC4PEM-15 12 2019-03-03 07:42:09 2019-03-03 11:26:24 EL96DG > EL98EA 118.9 miles 2° 2019-03-03 10:48:18
KQ4KX 19 2019-03-03 07:34:39 2019-03-03 11:23:41 EL96IS > EL98CB 93.7 miles 341° 2019-03-03 10:59:46
K4PKT-3 4 2019-03-03 09:05:50 2019-03-10 07:56:24 EL96KW > EL96VT 57.9 miles 98° 2019-03-03 09:19:53
WC4PEM-13 8 2019-03-03 07:34:29 2019-03-10 08:02:42 EL96JU > EL97IS 64.6 miles 353° 2019-03-03 09:14:48
K4PKT-1 4 2019-03-03 09:07:49 2019-03-10 07:57:26 EL96CE > EL96NR 65.6 miles 54° 2019-03-03 10:43:51
K3OCM-5 1 2019-03-03 10:41:38 2019-03-03 10:41:38 EL96CD > EL95HV 30.8 miles 122° 2019-03-03 10:41:38
K4OZS-10 7 2019-03-03 07:43:24 2019-03-10 09:02:12 EL97NG > EL89XC 147.5 miles 331° 2019-03-10 08:02:38
W4KBW 6 2019-03-03 11:05:10 2019-03-03 11:15:13 EL96KW > EL98HN 112.6 miles 353° 2019-03-03 11:05:10
KG9B-8 3 2019-03-03 09:23:45 2019-03-03 10:48:49 EL96EH > EL86XV 45.2 miles 329° 2019-03-03 10:47:49
N9JY-1 16 2019-03-03 07:38:38 2019-03-10 09:03:10 EL97LB > EL98OL 98.9 miles 8° 2019-03-03 11:06:44
K4PKT-2 8 2019-03-03 07:34:34 2019-03-10 09:06:03 EL96CD > EL97TC 107.6 miles 52° 2019-03-03 09:44:07
N4TDX 5 2019-03-03 09:08:15 2019-03-03 11:23:56 EL96JT > EL98OP 129.4 miles 11° 2019-03-03 09:22:14
KC9EQM 15 2019-03-10 07:47:15 2019-03-10 09:05:09 EL97OH > EL97TG 29.1 miles 93° 2019-03-10 08:55:12
N4TDX-1 1 2019-03-03 07:39:38 2019-03-03 07:39:38 EL97RM > EL98NM 71.1 miles 344° 2019-03-03 07:39:38
KJ3LR-10 12 2019-03-03 09:01:50 2019-03-03 11:15:42 EL97PK > EL87RM 112.7 miles 273° 2019-03-03 11:15:42
KN4EOG-10 3 2019-03-03 09:21:46 2019-03-03 09:35:42 EL96HP > EL96CI 31.8 miles 233° 2019-03-03 09:21:46
K4WOF-5 12 2019-03-03 11:19:42 2019-03-10 07:58:09 EL97NG > EL97TS 45.2 miles 39° 2019-03-10 07:58:09
AF4CN-3 8 2019-03-03 09:28:54 2019-03-10 09:10:04 EL96GM > EL97TN 96.6 miles 44° 2019-03-03 09:28:54

Only position packets which were originated by the station are shown here. The range statistics show some extra long hops, because some digipeaters do not correctly add themselves to the digipeater path. Please check the raw packets.
About this site
This page shows real-time information collected from the Automatic Position Reporting System Internet network (APRS-IS). APRS is used by amateur (ham) radio operators to transmit real-time position information, weather data, telemetry and messages over the radio. A vehicle equipped with a GPS receiver, a VHF transmitter or HF transceiver and a small computer device called a tracker transmits it's location, speed and course in a small data packet, which is then received by a nearby iGate receiving site which forwards the packet on the Internet. Systems connected to the Internet can send information on the APRS-IS without a radio transmitter, or collect and display information transmitted anywhere in the world.
FAQ · Blog · Discussion group · Linking to aprs.fi · AIS sites · Service status · Database statistics · Advertising on aprs.fi · Technical details · API · Change log · Planned changes · Credits and thanks · Terms Of Service · iPhone/iPad APRS